createdAt,value
2022-11-23T00:00:14.765Z,0.00
2022-11-23T00:01:14.766Z,0.00
2022-11-23T00:02:14.801Z,0.00
2022-11-23T00:03:14.725Z,0.00
2022-11-23T00:04:14.718Z,0.00
2022-11-23T00:05:14.703Z,0.00
2022-11-23T00:06:14.713Z,0.00
2022-11-23T00:07:14.740Z,0.00
2022-11-23T00:08:14.790Z,0.00
2022-11-23T00:09:14.658Z,0.00
2022-11-23T00:10:14.677Z,0.00
2022-11-23T00:11:14.656Z,0.00
2022-11-23T00:12:14.649Z,0.00
2022-11-23T00:13:14.620Z,0.00
2022-11-23T00:14:14.611Z,0.00
2022-11-23T00:15:14.593Z,0.00
2022-11-23T00:16:14.589Z,0.00
2022-11-23T00:17:14.598Z,0.00
2022-11-23T00:18:14.563Z,0.00
2022-11-23T00:19:14.553Z,0.00
2022-11-23T00:20:14.541Z,0.00
2022-11-23T00:21:14.527Z,0.00
2022-11-23T00:22:14.551Z,0.00
2022-11-23T00:23:14.509Z,0.00
2022-11-23T00:24:14.521Z,0.00
2022-11-23T00:25:14.566Z,0.00
2022-11-23T00:26:14.479Z,0.00
2022-11-23T00:27:14.478Z,0.00
2022-11-23T00:28:14.456Z,0.00
2022-11-23T00:29:14.444Z,0.00
2022-11-23T00:30:14.432Z,0.00
2022-11-23T00:31:14.426Z,0.00
2022-11-23T00:32:14.439Z,0.00
2022-11-23T00:33:14.402Z,0.00
2022-11-23T00:34:14.390Z,0.00
2022-11-23T00:35:14.374Z,0.00
2022-11-23T00:36:14.369Z,0.00
2022-11-23T00:37:14.385Z,0.00
2022-11-23T00:38:14.350Z,0.00
2022-11-23T00:39:14.338Z,0.00
2022-11-23T00:40:14.344Z,0.00
2022-11-23T00:41:14.322Z,0.00
2022-11-23T00:42:14.305Z,0.00
2022-11-23T00:43:14.311Z,0.00
2022-11-23T00:44:14.289Z,0.00
2022-11-23T00:45:14.270Z,0.00
2022-11-23T00:46:14.262Z,0.00
2022-11-23T00:47:14.250Z,0.00
2022-11-23T00:48:14.262Z,0.00
2022-11-23T00:49:14.230Z,0.00
2022-11-23T00:50:14.219Z,0.00
2022-11-23T00:51:14.205Z,0.00
2022-11-23T00:52:14.194Z,0.00
2022-11-23T00:53:14.244Z,0.00
2022-11-23T00:54:14.210Z,0.00
2022-11-23T00:55:14.162Z,0.00
2022-11-23T00:56:14.184Z,0.00
2022-11-23T00:57:14.138Z,0.00
2022-11-23T00:58:14.148Z,0.00
2022-11-23T00:59:14.141Z,0.00
2022-11-23T01:00:14.114Z,0.00
2022-11-23T01:01:14.188Z,0.00
2022-11-23T01:02:14.092Z,0.00
2022-11-23T01:03:14.105Z,0.00
2022-11-23T01:04:14.067Z,0.00
2022-11-23T01:05:14.052Z,0.00
2022-11-23T01:06:14.052Z,0.00
2022-11-23T01:07:14.071Z,0.00
2022-11-23T01:08:14.031Z,0.00
2022-11-23T01:09:14.033Z,0.00
2022-11-23T01:10:14.005Z,0.00
2022-11-23T01:11:14.001Z,0.00
2022-11-23T01:12:14.001Z,0.00
2022-11-23T01:13:13.964Z,0.00
2022-11-23T01:14:13.979Z,0.00
2022-11-23T01:15:13.943Z,0.00
2022-11-23T01:16:13.962Z,0.00
2022-11-23T01:17:13.924Z,0.00
2022-11-23T01:18:13.944Z,0.00
2022-11-23T01:19:13.909Z,0.00
2022-11-23T01:20:13.900Z,0.00
2022-11-23T01:21:13.880Z,0.00
2022-11-23T01:22:13.878Z,0.00
2022-11-23T01:23:13.883Z,0.00
2022-11-23T01:24:13.851Z,0.00
2022-11-23T01:25:13.834Z,0.00
2022-11-23T01:26:13.831Z,0.00
2022-11-23T01:27:13.831Z,0.00
2022-11-23T01:28:13.828Z,0.00
2022-11-23T01:29:13.813Z,0.00
2022-11-23T01:30:13.797Z,0.00
2022-11-23T01:31:13.774Z,0.00
2022-11-23T01:32:13.765Z,0.00
2022-11-23T01:33:13.750Z,0.00
2022-11-23T01:34:13.766Z,0.00
2022-11-23T01:35:13.734Z,0.00
2022-11-23T01:36:13.717Z,0.00
2022-11-23T01:37:13.707Z,0.00
2022-11-23T01:38:17.989Z,0.00
2022-11-23T01:39:13.707Z,0.00
2022-11-23T01:40:13.681Z,0.00
2022-11-23T01:41:13.663Z,0.00
2022-11-23T01:42:17.701Z,0.00
2022-11-23T01:43:13.643Z,0.00
2022-11-23T01:44:13.673Z,0.00
2022-11-23T01:45:13.626Z,0.00
2022-11-23T01:46:13.616Z,0.00
2022-11-23T01:47:13.605Z,0.00
2022-11-23T01:48:13.595Z,0.00
2022-11-23T01:49:13.596Z,0.00
2022-11-23T01:50:13.565Z,0.00
2022-11-23T01:51:13.553Z,0.00
2022-11-23T01:52:13.547Z,0.00
2022-11-23T01:53:13.537Z,0.00
2022-11-23T01:54:13.539Z,0.00
2022-11-23T01:55:13.511Z,0.00
2022-11-23T01:56:13.503Z,0.00
2022-11-23T01:57:13.493Z,0.00
2022-11-23T01:58:13.486Z,0.00
2022-11-23T01:59:13.491Z,0.00
2022-11-23T02:00:13.499Z,0.00
2022-11-23T02:01:13.573Z,0.00
2022-11-23T02:02:13.441Z,0.00
2022-11-23T02:03:13.440Z,0.00
2022-11-23T02:04:13.419Z,0.00
2022-11-23T02:05:13.404Z,0.00
2022-11-23T02:06:13.415Z,0.00
2022-11-23T02:07:13.478Z,0.00
2022-11-23T02:08:13.374Z,0.00
2022-11-23T02:09:13.361Z,0.00
2022-11-23T02:10:13.351Z,0.00
2022-11-23T02:11:13.363Z,0.00
2022-11-23T02:12:13.333Z,0.00
2022-11-23T02:13:13.313Z,0.00
2022-11-23T02:14:13.311Z,0.00
2022-11-23T02:15:13.294Z,0.00
2022-11-23T02:16:13.330Z,0.00
2022-11-23T02:17:13.281Z,0.00
2022-11-23T02:18:13.266Z,0.00
2022-11-23T02:19:13.253Z,0.00
2022-11-23T02:20:13.243Z,0.00
2022-11-23T02:21:13.263Z,0.00
2022-11-23T02:22:13.225Z,0.00
2022-11-23T02:23:13.205Z,0.00
2022-11-23T02:24:13.201Z,0.00
2022-11-23T02:25:13.189Z,0.00
2022-11-23T02:26:13.181Z,0.00
2022-11-23T02:27:13.188Z,0.00
2022-11-23T02:28:13.157Z,0.00
2022-11-23T02:29:13.139Z,0.00
2022-11-23T02:30:13.141Z,0.00
2022-11-23T02:31:13.122Z,0.00
2022-11-23T02:32:13.153Z,0.00
2022-11-23T02:33:13.104Z,0.00
2022-11-23T02:34:13.096Z,0.00
2022-11-23T02:35:13.080Z,0.00
2022-11-23T02:36:13.073Z,0.00
2022-11-23T02:37:13.079Z,0.00
2022-11-23T02:38:13.048Z,0.00
2022-11-23T02:39:13.044Z,0.00
2022-11-23T02:40:13.028Z,0.00
2022-11-23T02:41:13.022Z,0.00
2022-11-23T02:42:13.028Z,0.00
2022-11-23T02:43:12.994Z,0.00
2022-11-23T02:44:12.984Z,0.00
2022-11-23T02:45:12.972Z,0.00
2022-11-23T02:46:12.961Z,0.00
2022-11-23T02:47:13.012Z,0.00
2022-11-23T02:48:12.963Z,0.00
2022-11-23T02:49:12.970Z,0.00
2022-11-23T02:50:12.922Z,0.00
2022-11-23T02:51:12.908Z,0.00
2022-11-23T02:52:12.923Z,0.00
2022-11-23T02:53:12.881Z,0.00
2022-11-23T02:54:12.872Z,0.00
2022-11-23T02:55:12.866Z,0.00
2022-11-23T02:56:12.859Z,0.00
2022-11-23T02:57:12.865Z,0.00
2022-11-23T02:58:12.835Z,0.00
2022-11-23T02:59:12.819Z,0.00
2022-11-23T03:00:12.810Z,0.00
2022-11-23T03:01:12.834Z,0.00
2022-11-23T03:02:12.815Z,0.00
2022-11-23T03:03:12.776Z,0.00
2022-11-23T03:04:12.784Z,0.00
2022-11-23T03:05:12.751Z,0.00
2022-11-23T03:06:12.747Z,0.00
2022-11-23T03:07:12.820Z,0.00
2022-11-23T03:08:12.723Z,0.00
2022-11-23T03:09:12.711Z,0.00
2022-11-23T03:10:12.702Z,0.00
2022-11-23T03:11:12.692Z,0.00
2022-11-23T03:12:12.716Z,0.00
2022-11-23T03:13:12.667Z,0.00
2022-11-23T03:14:12.660Z,0.00
2022-11-23T03:15:12.646Z,0.00
2022-11-23T03:16:12.638Z,0.00
2022-11-23T03:17:12.626Z,0.00
2022-11-23T03:18:12.632Z,0.00
2022-11-23T03:19:12.600Z,0.00
2022-11-23T03:20:12.632Z,0.00
2022-11-23T03:21:12.578Z,0.00
2022-11-23T03:22:12.574Z,0.00
2022-11-23T03:23:12.582Z,0.00
2022-11-23T03:24:12.548Z,0.00
2022-11-23T03:25:12.537Z,0.00
2022-11-23T03:26:13.241Z,0.00
2022-11-23T03:27:12.517Z,0.00
2022-11-23T03:28:12.532Z,0.00
2022-11-23T03:29:12.496Z,0.00
2022-11-23T03:30:12.487Z,0.00
2022-11-23T03:31:12.473Z,0.00
2022-11-23T03:32:12.463Z,0.00
2022-11-23T03:33:12.469Z,0.00
2022-11-23T03:34:12.447Z,0.00
2022-11-23T03:35:12.440Z,0.00
2022-11-23T03:36:12.444Z,0.00
2022-11-23T03:37:12.410Z,0.00
2022-11-23T03:38:12.431Z,0.00
2022-11-23T03:39:12.383Z,0.00
2022-11-23T03:40:12.375Z,0.00
2022-11-23T03:41:12.365Z,0.00
2022-11-23T03:42:12.361Z,0.00
2022-11-23T03:43:12.370Z,0.00
2022-11-23T03:44:12.368Z,0.00
2022-11-23T03:45:12.328Z,0.00
2022-11-23T03:46:12.317Z,0.00
2022-11-23T03:47:12.298Z,0.00
2022-11-23T03:48:12.289Z,0.00
2022-11-23T03:49:12.302Z,0.00
2022-11-23T03:50:12.270Z,0.00
2022-11-23T03:51:12.264Z,0.00
2022-11-23T03:52:12.270Z,0.00
2022-11-23T03:53:12.258Z,0.00
2022-11-23T03:54:12.224Z,0.00
2022-11-23T03:55:12.218Z,0.00
2022-11-23T03:56:12.208Z,0.00
2022-11-23T03:57:12.191Z,0.00
2022-11-23T03:58:12.200Z,0.00
2022-11-23T03:59:12.194Z,0.00
2022-11-23T04:00:12.161Z,0.00
2022-11-23T04:01:12.244Z,0.00
2022-11-23T04:02:12.142Z,0.00
2022-11-23T04:03:12.150Z,0.00
2022-11-23T04:04:12.143Z,0.00
2022-11-23T04:05:12.103Z,0.00
2022-11-23T04:06:12.092Z,0.00
2022-11-23T04:07:12.106Z,0.00
2022-11-23T04:08:12.115Z,0.00
2022-11-23T04:09:12.083Z,0.00
2022-11-23T04:10:12.049Z,0.00
2022-11-23T04:11:12.070Z,0.00
2022-11-23T04:12:12.027Z,0.00
2022-11-23T04:13:12.021Z,0.00
2022-11-23T04:14:12.008Z,0.00
2022-11-23T04:15:12.001Z,0.00
2022-11-23T04:16:12.007Z,0.00
2022-11-23T04:17:11.982Z,0.00
2022-11-23T04:18:11.961Z,0.00
2022-11-23T04:19:11.975Z,0.00
2022-11-23T04:20:11.945Z,0.00
2022-11-23T04:21:11.932Z,0.00
2022-11-23T04:22:11.918Z,0.00
2022-11-23T04:23:13.545Z,0.00
2022-11-23T04:24:11.930Z,0.00
2022-11-23T04:25:11.893Z,0.00
2022-11-23T04:26:11.898Z,0.00
2022-11-23T04:27:11.864Z,0.00
2022-11-23T04:28:11.860Z,0.00
2022-11-23T04:29:11.849Z,0.00
2022-11-23T04:30:11.877Z,0.00
2022-11-23T04:31:11.827Z,0.00
2022-11-23T04:32:11.810Z,0.00
2022-11-23T04:33:11.805Z,0.00
2022-11-23T04:34:11.787Z,0.00
2022-11-23T04:35:11.799Z,0.00
2022-11-23T04:36:11.795Z,0.00
2022-11-23T04:37:13.433Z,0.00
2022-11-23T04:38:11.743Z,0.00
2022-11-23T04:39:11.734Z,0.00
2022-11-23T04:40:11.766Z,0.00
2022-11-23T04:41:11.719Z,0.00
2022-11-23T04:42:11.707Z,0.00
2022-11-23T04:43:11.699Z,0.00
2022-11-23T04:44:11.677Z,0.00
2022-11-23T04:45:11.698Z,0.00
2022-11-23T04:46:11.661Z,0.00
2022-11-23T04:47:11.653Z,0.00
2022-11-23T04:48:11.639Z,0.00
2022-11-23T04:49:11.635Z,0.00
2022-11-23T04:50:11.636Z,0.00
2022-11-23T04:51:11.607Z,0.00
2022-11-23T04:52:11.591Z,0.00
2022-11-23T04:53:11.611Z,0.00
2022-11-23T04:54:11.573Z,0.00
2022-11-23T04:55:11.571Z,0.00
2022-11-23T04:56:11.574Z,0.00
2022-11-23T04:57:11.544Z,0.00
2022-11-23T04:58:11.527Z,0.00
2022-11-23T04:59:12.150Z,0.00
2022-11-23T05:00:11.535Z,0.00
2022-11-23T05:01:11.609Z,0.00
2022-11-23T05:02:11.486Z,0.00
2022-11-23T05:03:11.473Z,0.00
2022-11-23T05:04:17.444Z,0.00
2022-11-23T05:05:12.481Z,0.00
2022-11-23T05:06:11.440Z,0.00
2022-11-23T05:07:11.482Z,0.00
2022-11-23T05:08:11.421Z,0.00
2022-11-23T05:09:11.416Z,0.00
2022-11-23T05:10:11.395Z,0.00
2022-11-23T05:11:11.410Z,0.00
2022-11-23T05:12:11.401Z,0.00
2022-11-23T05:13:11.385Z,0.00
2022-11-23T05:14:11.354Z,0.00
2022-11-23T05:15:11.350Z,0.00
2022-11-23T05:16:11.336Z,0.00
2022-11-23T05:17:11.356Z,0.00
2022-11-23T05:18:11.311Z,0.00
2022-11-23T05:19:11.308Z,0.00
2022-11-23T05:20:11.288Z,0.00
2022-11-23T05:21:11.282Z,0.00
2022-11-23T05:22:11.289Z,0.00
2022-11-23T05:23:11.287Z,0.00
2022-11-23T05:24:11.249Z,0.00
2022-11-23T05:25:11.239Z,0.00
2022-11-23T05:26:11.224Z,0.00
2022-11-23T05:27:11.223Z,0.00
2022-11-23T05:28:30.493Z,0.00
2022-11-23T05:29:12.198Z,0.00
2022-11-23T05:30:11.183Z,0.00
2022-11-23T05:31:11.176Z,0.00
2022-11-23T05:32:11.156Z,0.00
2022-11-23T05:33:11.176Z,0.00
2022-11-23T05:34:11.137Z,0.00
2022-11-23T05:35:11.131Z,0.00
2022-11-23T05:36:11.123Z,0.00
2022-11-23T05:37:11.106Z,0.00
2022-11-23T05:38:11.111Z,0.00
2022-11-23T05:39:11.091Z,0.00
2022-11-23T05:40:11.083Z,0.00
2022-11-23T05:41:11.093Z,0.00
2022-11-23T05:42:11.053Z,0.00
2022-11-23T05:43:11.044Z,0.00
2022-11-23T05:44:11.052Z,0.00
2022-11-23T05:45:11.846Z,0.00
2022-11-23T05:46:11.005Z,0.00
2022-11-23T05:47:11.027Z,0.00
2022-11-23T05:48:11.011Z,0.00
2022-11-23T05:49:10.982Z,0.00
2022-11-23T05:50:10.965Z,0.00
2022-11-23T05:51:10.964Z,0.00
2022-11-23T05:52:10.962Z,0.00
2022-11-23T05:53:10.939Z,0.00
2022-11-23T05:54:10.945Z,0.00
2022-11-23T05:55:10.913Z,0.00
2022-11-23T05:56:10.898Z,0.00
2022-11-23T05:57:10.924Z,0.00
2022-11-23T05:58:10.876Z,0.00
2022-11-23T05:59:10.878Z,0.00
2022-11-23T06:00:10.876Z,0.00
2022-11-23T06:01:10.850Z,0.00
2022-11-23T06:02:10.854Z,0.00
2022-11-23T06:03:10.830Z,0.00
2022-11-23T06:04:10.920Z,0.00
2022-11-23T06:05:10.801Z,0.00
2022-11-23T06:06:10.789Z,0.00
2022-11-23T06:07:10.834Z,0.00
2022-11-23T06:08:10.790Z,0.00
2022-11-23T06:09:10.767Z,0.00
2022-11-23T06:10:10.778Z,0.00
2022-11-23T06:11:10.742Z,0.00
2022-11-23T06:12:10.732Z,0.00
2022-11-23T06:13:10.717Z,0.00
2022-11-23T06:14:14.268Z,0.00
2022-11-23T06:15:10.720Z,0.00
2022-11-23T06:16:10.704Z,0.00
2022-11-23T06:17:10.682Z,0.00
2022-11-23T06:18:10.663Z,0.00
2022-11-23T06:19:10.655Z,0.00
2022-11-23T06:20:10.668Z,0.00
2022-11-23T06:21:10.639Z,4.00
2022-11-23T06:22:10.619Z,4.00
2022-11-23T06:23:10.608Z,4.00
2022-11-23T06:24:10.598Z,0.00
2022-11-23T06:25:10.605Z,0.00
2022-11-23T06:26:10.577Z,4.00
2022-11-23T06:27:15.274Z,4.00
2022-11-23T06:28:11.553Z,4.00
2022-11-23T06:29:10.550Z,4.00
2022-11-23T06:30:10.554Z,4.00
2022-11-23T06:31:10.528Z,8.00
2022-11-23T06:32:10.550Z,4.00
2022-11-23T06:33:10.501Z,8.00
2022-11-23T06:34:10.496Z,8.00
2022-11-23T06:35:10.484Z,12.00
2022-11-23T06:36:10.481Z,8.00
2022-11-23T06:37:10.479Z,12.00
2022-11-23T06:38:10.470Z,12.00
2022-11-23T06:39:10.444Z,12.00
2022-11-23T06:40:10.428Z,12.00
2022-11-23T06:41:10.414Z,16.00
2022-11-23T06:42:37.338Z,16.00
2022-11-23T06:43:11.414Z,16.00
2022-11-23T06:44:10.407Z,16.00
2022-11-23T06:45:10.381Z,20.00
2022-11-23T06:46:10.364Z,16.00
2022-11-23T06:47:15.376Z,20.00
2022-11-23T06:48:11.355Z,24.00
2022-11-23T06:49:10.356Z,24.00
2022-11-23T06:50:10.366Z,24.00
2022-11-23T06:51:10.322Z,24.00
2022-11-23T06:52:10.300Z,28.00
2022-11-23T06:53:10.290Z,28.00
2022-11-23T06:54:10.291Z,28.00
2022-11-23T06:55:10.265Z,32.00
2022-11-23T06:56:10.256Z,36.00
2022-11-23T06:57:10.244Z,36.00
2022-11-23T06:58:10.258Z,36.00
2022-11-23T06:59:10.219Z,40.00
2022-11-23T07:00:10.208Z,44.00
2022-11-23T07:01:10.243Z,48.00
2022-11-23T07:02:10.185Z,48.00
2022-11-23T07:03:10.218Z,44.00
2022-11-23T07:04:10.192Z,48.00
2022-11-23T07:05:10.158Z,52.00
2022-11-23T07:06:10.141Z,52.00
2022-11-23T07:07:10.252Z,56.00
2022-11-23T07:08:10.143Z,56.00
2022-11-23T07:09:10.118Z,60.00
2022-11-23T07:10:10.104Z,60.00
2022-11-23T07:11:10.093Z,64.00
2022-11-23T07:12:10.079Z,64.00
2022-11-23T07:13:10.100Z,68.00
2022-11-23T07:14:10.082Z,68.00
2022-11-23T07:15:10.049Z,68.00
2022-11-23T07:16:10.061Z,76.00
2022-11-23T07:17:12.704Z,76.00
2022-11-23T07:18:11.008Z,80.00
2022-11-23T07:19:10.011Z,80.00
2022-11-23T07:20:10.010Z,84.00
2022-11-23T07:21:10.002Z,88.00
2022-11-23T07:22:09.971Z,92.00
2022-11-23T07:23:09.996Z,92.00
2022-11-23T07:24:09.949Z,92.00
2022-11-23T07:25:09.939Z,92.00
2022-11-23T07:26:09.927Z,100.00
2022-11-23T07:27:09.915Z,104.00
2022-11-23T07:28:09.929Z,112.00
2022-11-23T07:29:09.909Z,124.00
2022-11-23T07:30:09.880Z,132.00
2022-11-23T07:31:09.882Z,140.00
2022-11-23T07:32:09.862Z,132.00
2022-11-23T07:33:09.898Z,144.00
2022-11-23T07:34:09.840Z,148.00
2022-11-23T07:35:09.832Z,144.00
2022-11-23T07:36:09.836Z,148.00
2022-11-23T07:37:09.807Z,136.00
2022-11-23T07:38:09.801Z,144.00
2022-11-23T07:39:09.807Z,152.00
2022-11-23T07:40:09.776Z,160.00
2022-11-23T07:41:09.792Z,164.00
2022-11-23T07:42:31.565Z,172.00
2022-11-23T07:43:10.746Z,176.00
2022-11-23T07:44:09.748Z,180.00
2022-11-23T07:45:09.723Z,196.00
2022-11-23T07:46:09.714Z,208.00
2022-11-23T07:47:09.706Z,216.00
2022-11-23T07:48:09.736Z,208.00
2022-11-23T07:49:09.683Z,232.00
2022-11-23T07:50:09.669Z,248.00
2022-11-23T07:51:09.666Z,268.00
2022-11-23T07:52:09.665Z,292.00
2022-11-23T07:53:09.642Z,328.00
2022-11-23T07:54:09.642Z,372.00
2022-11-23T07:55:09.615Z,404.00
2022-11-23T07:56:09.627Z,444.00
2022-11-23T07:57:09.595Z,460.00
2022-11-23T07:58:09.583Z,456.00
2022-11-23T07:59:09.593Z,448.00
2022-11-23T08:00:09.563Z,424.00
2022-11-23T08:01:09.555Z,420.00
2022-11-23T08:02:09.568Z,408.00
2022-11-23T08:03:27.178Z,392.00
2022-11-23T08:04:10.545Z,388.00
2022-11-23T08:05:14.065Z,400.00
2022-11-23T08:06:09.492Z,412.00
2022-11-23T08:07:09.570Z,408.00
2022-11-23T08:08:09.492Z,420.00
2022-11-23T08:09:09.504Z,416.00
2022-11-23T08:10:09.448Z,424.00
2022-11-23T08:11:09.443Z,448.00
2022-11-23T08:12:09.434Z,456.00
2022-11-23T08:13:09.429Z,464.00
2022-11-23T08:14:09.411Z,464.00
2022-11-23T08:15:09.423Z,476.00
2022-11-23T08:16:09.393Z,488.00
2022-11-23T08:17:09.398Z,488.00
2022-11-23T08:18:09.367Z,464.00
2022-11-23T08:19:09.359Z,444.00
2022-11-23T08:20:09.352Z,432.00
2022-11-23T08:21:09.333Z,428.00
2022-11-23T08:22:09.376Z,404.00
2022-11-23T08:23:09.310Z,404.00
2022-11-23T08:24:09.420Z,380.00
2022-11-23T08:25:09.311Z,352.00
2022-11-23T08:26:13.564Z,304.00
2022-11-23T08:27:09.273Z,288.00
2022-11-23T08:28:09.276Z,280.00
2022-11-23T08:29:09.246Z,280.00
2022-11-23T08:30:09.242Z,284.00
2022-11-23T08:31:09.238Z,284.00
2022-11-23T08:32:09.217Z,276.00
2022-11-23T08:33:09.226Z,292.00
2022-11-23T08:34:09.195Z,304.00
2022-11-23T08:35:09.177Z,308.00
2022-11-23T08:36:09.175Z,308.00
2022-11-23T08:37:09.164Z,292.00
2022-11-23T08:38:09.173Z,280.00
2022-11-23T08:39:09.161Z,280.00
2022-11-23T08:40:09.147Z,276.00
2022-11-23T08:41:09.116Z,272.00
2022-11-23T08:42:09.113Z,280.00
2022-11-23T08:43:09.115Z,284.00
2022-11-23T08:44:09.087Z,308.00
2022-11-23T08:45:09.073Z,332.00
2022-11-23T08:46:11.268Z,380.00
2022-11-23T08:47:09.047Z,400.00
2022-11-23T08:48:09.062Z,392.00
2022-11-23T08:49:09.034Z,372.00
2022-11-23T08:50:09.048Z,372.00
2022-11-23T08:51:09.009Z,312.00
2022-11-23T08:52:08.996Z,296.00
2022-11-23T08:53:08.986Z,304.00
2022-11-23T08:54:08.977Z,324.00
2022-11-23T08:55:08.981Z,312.00
2022-11-23T08:56:08.979Z,324.00
2022-11-23T08:57:08.943Z,328.00
2022-11-23T08:58:13.198Z,324.00
2022-11-23T08:59:08.922Z,332.00
2022-11-23T09:00:08.938Z,348.00
2022-11-23T09:01:08.925Z,384.00
2022-11-23T09:02:08.891Z,388.00
2022-11-23T09:03:08.879Z,400.00
2022-11-23T09:04:08.873Z,380.00
2022-11-23T09:05:08.878Z,376.00
2022-11-23T09:06:08.851Z,396.00
2022-11-23T09:07:08.959Z,448.00
2022-11-23T09:08:08.830Z,528.00
2022-11-23T09:09:08.816Z,588.00
2022-11-23T09:10:11.487Z,636.00
2022-11-23T09:11:08.790Z,728.00
2022-11-23T09:12:08.916Z,740.00
2022-11-23T09:13:08.776Z,776.00
2022-11-23T09:14:08.761Z,820.00
2022-11-23T09:15:08.769Z,844.00
2022-11-23T09:16:08.743Z,816.00
2022-11-23T09:17:08.726Z,712.00
2022-11-23T09:18:08.721Z,692.00
2022-11-23T09:19:08.705Z,732.00
2022-11-23T09:20:08.719Z,740.00
2022-11-23T09:21:08.717Z,752.00
2022-11-23T09:22:08.670Z,776.00
2022-11-23T09:23:13.680Z,860.00
2022-11-23T09:24:09.711Z,868.00
2022-11-23T09:25:08.712Z,864.00
2022-11-23T09:26:08.652Z,752.00
2022-11-23T09:27:08.621Z,560.00
2022-11-23T09:28:08.633Z,436.00
2022-11-23T09:29:08.596Z,424.00
2022-11-23T09:30:08.597Z,384.00
2022-11-23T09:31:08.587Z,380.00
2022-11-23T09:32:08.566Z,388.00
2022-11-23T09:33:08.573Z,384.00
2022-11-23T09:34:08.563Z,364.00
2022-11-23T09:35:08.533Z,328.00
2022-11-23T09:36:08.522Z,352.00
2022-11-23T09:37:08.506Z,356.00
2022-11-23T09:38:08.529Z,352.00
2022-11-23T09:39:08.496Z,356.00
2022-11-23T09:40:08.482Z,348.00
2022-11-23T09:41:08.472Z,324.00
2022-11-23T09:42:08.473Z,332.00
2022-11-23T09:43:08.475Z,344.00
2022-11-23T09:44:08.456Z,352.00
2022-11-23T09:45:08.426Z,352.00
2022-11-23T09:46:08.421Z,364.00
2022-11-23T09:47:08.408Z,364.00
2022-11-23T09:48:08.416Z,304.00
2022-11-23T09:49:08.379Z,300.00
2022-11-23T09:50:08.372Z,300.00
2022-11-23T09:51:08.361Z,244.00
2022-11-23T09:52:08.357Z,268.00
2022-11-23T09:53:08.356Z,260.00
2022-11-23T09:54:08.330Z,236.00
2022-11-23T09:55:08.332Z,244.00
2022-11-23T09:56:08.308Z,276.00
2022-11-23T09:57:08.294Z,252.00
2022-11-23T09:58:08.320Z,272.00
2022-11-23T09:59:11.145Z,292.00
2022-11-23T10:00:08.282Z,300.00
2022-11-23T10:01:08.424Z,292.00
2022-11-23T10:02:08.305Z,308.00
2022-11-23T10:03:08.248Z,300.00
2022-11-23T10:04:08.223Z,360.00
2022-11-23T10:05:08.232Z,360.00
2022-11-23T10:06:08.204Z,384.00
2022-11-23T10:07:09.156Z,400.00
2022-11-23T10:08:08.177Z,400.00
2022-11-23T10:09:08.167Z,400.00
2022-11-23T10:10:08.175Z,380.00
2022-11-23T10:11:08.172Z,388.00
2022-11-23T10:12:08.136Z,384.00
2022-11-23T10:13:08.119Z,380.00
2022-11-23T10:14:08.113Z,380.00
2022-11-23T10:15:08.126Z,380.00
2022-11-23T10:16:08.135Z,372.00
2022-11-23T10:17:08.081Z,396.00
2022-11-23T10:18:08.073Z,388.00
2022-11-23T10:19:08.057Z,388.00
2022-11-23T10:20:08.051Z,368.00
2022-11-23T10:21:08.065Z,440.00
2022-11-23T10:22:08.036Z,452.00
2022-11-23T10:23:08.015Z,428.00
2022-11-23T10:24:08.006Z,400.00
2022-11-23T10:25:07.997Z,384.00
2022-11-23T10:26:07.985Z,376.00
2022-11-23T10:27:07.996Z,376.00
2022-11-23T10:28:07.972Z,368.00
2022-11-23T10:29:07.947Z,360.00
2022-11-23T10:30:07.941Z,348.00
2022-11-23T10:31:07.929Z,380.00
2022-11-23T10:32:07.953Z,388.00
2022-11-23T10:33:07.925Z,388.00
2022-11-23T10:34:07.898Z,392.00
2022-11-23T10:35:07.886Z,388.00
2022-11-23T10:36:07.879Z,392.00
2022-11-23T10:37:07.862Z,392.00
2022-11-23T10:38:07.879Z,396.00
2022-11-23T10:39:07.837Z,404.00
2022-11-23T10:40:07.836Z,404.00
2022-11-23T10:41:07.844Z,396.00
2022-11-23T10:42:07.813Z,388.00
2022-11-23T10:43:07.798Z,396.00
2022-11-23T10:44:07.795Z,396.00
2022-11-23T10:45:07.799Z,400.00
2022-11-23T10:46:07.784Z,396.00
2022-11-23T10:47:07.754Z,392.00
2022-11-23T10:48:07.768Z,380.00
2022-11-23T10:49:07.747Z,380.00
2022-11-23T10:50:07.724Z,396.00
2022-11-23T10:51:07.733Z,400.00
2022-11-23T10:52:07.705Z,396.00
2022-11-23T10:53:07.686Z,396.00
2022-11-23T10:54:07.678Z,392.00
2022-11-23T10:55:07.670Z,404.00
2022-11-23T10:56:07.711Z,404.00
2022-11-23T10:57:07.653Z,396.00
2022-11-23T10:58:07.635Z,420.00
2022-11-23T10:59:07.622Z,452.00
2022-11-23T11:00:07.618Z,452.00
2022-11-23T11:01:07.624Z,464.00
2022-11-23T11:02:07.687Z,468.00
2022-11-23T11:03:07.588Z,460.00
2022-11-23T11:04:07.603Z,452.00
2022-11-23T11:05:07.561Z,444.00
2022-11-23T11:06:09.540Z,440.00
2022-11-23T11:07:07.617Z,416.00
2022-11-23T11:08:07.530Z,384.00
2022-11-23T11:09:13.341Z,404.00
2022-11-23T11:10:08.513Z,440.00
2022-11-23T11:11:07.489Z,460.00
2022-11-23T11:12:07.510Z,448.00
2022-11-23T11:13:07.486Z,444.00
2022-11-23T11:14:07.464Z,552.00
2022-11-23T11:15:12.013Z,692.00
2022-11-23T11:16:07.438Z,736.00
2022-11-23T11:17:07.429Z,716.00
2022-11-23T11:18:07.423Z,756.00
2022-11-23T11:19:07.411Z,724.00
2022-11-23T11:20:07.442Z,700.00
2022-11-23T11:21:07.385Z,708.00
2022-11-23T11:22:07.376Z,712.00
2022-11-23T11:23:07.391Z,704.00
2022-11-23T11:24:07.355Z,752.00
2022-11-23T11:25:07.341Z,792.00
2022-11-23T11:26:07.343Z,812.00
2022-11-23T11:27:07.318Z,852.00
2022-11-23T11:28:07.344Z,852.00
2022-11-23T11:29:07.295Z,884.00
2022-11-23T11:30:07.288Z,916.00
2022-11-23T11:31:07.272Z,904.00
2022-11-23T11:32:07.270Z,888.00
2022-11-23T11:33:07.292Z,876.00
2022-11-23T11:34:07.244Z,856.00
2022-11-23T11:35:07.233Z,824.00
2022-11-23T11:36:07.245Z,840.00
2022-11-23T11:37:07.205Z,880.00
2022-11-23T11:38:07.221Z,888.00
2022-11-23T11:39:18.384Z,872.00
2022-11-23T11:40:08.199Z,868.00
2022-11-23T11:41:07.170Z,860.00
2022-11-23T11:42:07.165Z,884.00
2022-11-23T11:43:07.176Z,856.00
2022-11-23T11:44:07.140Z,840.00
2022-11-23T11:45:07.122Z,812.00
2022-11-23T11:46:28.086Z,820.00
2022-11-23T11:47:08.104Z,820.00
2022-11-23T11:48:07.106Z,832.00
2022-11-23T11:49:07.085Z,804.00
2022-11-23T11:50:07.080Z,764.00
2022-11-23T11:51:07.094Z,752.00
2022-11-23T11:52:07.072Z,728.00
2022-11-23T11:53:07.042Z,748.00
2022-11-23T11:54:07.041Z,752.00
2022-11-23T11:55:07.014Z,752.00
2022-11-23T11:56:07.024Z,748.00
2022-11-23T11:57:07.026Z,696.00
2022-11-23T11:58:06.984Z,680.00
2022-11-23T11:59:06.970Z,684.00
2022-11-23T12:00:06.957Z,684.00
2022-11-23T12:01:06.968Z,660.00
2022-11-23T12:02:06.938Z,672.00
2022-11-23T12:03:07.046Z,680.00
2022-11-23T12:04:06.919Z,692.00
2022-11-23T12:05:06.905Z,692.00
2022-11-23T12:06:06.893Z,720.00
2022-11-23T12:07:06.985Z,736.00
2022-11-23T12:08:06.918Z,772.00
2022-11-23T12:09:06.864Z,796.00
2022-11-23T12:10:06.856Z,844.00
2022-11-23T12:11:06.834Z,824.00
2022-11-23T12:12:06.829Z,808.00
2022-11-23T12:13:06.844Z,812.00
2022-11-23T12:14:06.810Z,788.00
2022-11-23T12:15:26.263Z,812.00
2022-11-23T12:16:07.787Z,860.00
2022-11-23T12:17:31.993Z,876.00
2022-11-23T12:18:11.558Z,880.00
2022-11-23T12:19:06.749Z,848.00
2022-11-23T12:20:06.742Z,840.00
2022-11-23T12:21:06.896Z,844.00
2022-11-23T12:22:06.796Z,808.00
2022-11-23T12:23:06.708Z,804.00
2022-11-23T12:24:06.749Z,800.00
2022-11-23T12:25:06.692Z,732.00
2022-11-23T12:26:06.686Z,676.00
2022-11-23T12:27:06.665Z,648.00
2022-11-23T12:28:06.659Z,588.00
2022-11-23T12:29:06.642Z,624.00
2022-11-23T12:30:06.657Z,652.00
2022-11-23T12:31:06.627Z,668.00
2022-11-23T12:32:06.623Z,644.00
2022-11-23T12:33:06.604Z,624.00
2022-11-23T12:34:06.593Z,576.00
2022-11-23T12:35:06.612Z,544.00
2022-11-23T12:36:06.575Z,520.00
2022-11-23T12:37:06.588Z,552.00
2022-11-23T12:38:06.573Z,532.00
2022-11-23T12:39:06.552Z,544.00
2022-11-23T12:40:06.578Z,532.00
2022-11-23T12:41:06.549Z,496.00
2022-11-23T12:42:06.529Z,496.00
2022-11-23T12:43:06.520Z,504.00
2022-11-23T12:44:06.512Z,544.00
2022-11-23T12:45:06.506Z,572.00
2022-11-23T12:46:06.469Z,576.00
2022-11-23T12:47:06.456Z,564.00
2022-11-23T12:48:06.441Z,556.00
2022-11-23T12:49:06.436Z,544.00
2022-11-23T12:50:06.443Z,544.00
2022-11-23T12:51:06.417Z,504.00
2022-11-23T12:52:06.402Z,492.00
2022-11-23T12:53:06.414Z,464.00
2022-11-23T12:54:06.447Z,448.00